メインページ
METAR-TAF:

METAR-TAF

空港 :

カイロ, エジプト

カイロ国際空港

緯度: 30-08N, 経度: 031-24E, 海抜: 64m

現時点の気象観測

当レポートは18分前の01:30(UTC)に作成
の風 10kt
気温 14°C
湿度 55%
気圧 1016 hPa
視程10km以上
1,500メートル以下は雲なし、積乱雲なし

METAR: HECA 180130Z 19010KT CAVOK 14/05 Q1016 NOSIG

時間: 03:48 (01:48 UTC)

予報

当レポートは2時間48分前の23:00(UTC)に作成
予報は18日の 00時(UTC)から 19日の 06時(UTC)まで有効
南/南西の風 5kt
視程10km以上
高度2500ftの雲はほとんどない
18日の 01時(UTC)から 18日の 08時(UTC)まで一時的に
変向風 3kt
視程: 3000m
煙霧
18日の 11時(UTC)から 18日の 20時(UTC)まで一時的に
西の風 15kt、最大25ktの突風を伴う
視程: 2000m
18日の 20時(UTC)から 18日の 24時(UTC)まで一時的に
視程: 5000m
高度2000ftの千切れ雲あり
小雨

TAF: HECA 172300Z 1800/1906 20005KT 9999 FEW025 TEMPO 1801/1808 VRB03KT 3000 HZ TEMPO 1811/1820 28015G25KT 2000 SA TEMPO 1820/1824 5000 -RA BKN020

4,000以上の空港の気象観測と天気予報(METAR報とTAF報)

利用可能な観測所は地図上に黄色い丸と赤い丸で示す。

丸の上にカーソルを重ねると観測所名を参照できる。

次にクリックすると気象観測と天気予報を参照できる。

マップの切り替え:黒色「×」印の緑ボタンをクリックして拡大、「-」印の緑ボタンをクリックして縮小、緑色の三角印をクリックして隣りの地図に切り替え


METAR-TAF: